Terminal Aerodrome Forecast
Issued by NWS

Home | Current Version | Previous Version | Text Only | Print | Product List | Glossary On
Versions: 1 2 3 4 5 6 7 8 9 10 11 12 13 14 15 16 17 18
000
FTUS43 KMQT 221100
TAFIWD
TAF
KIWD 221138Z 2212/2312 15009KT P6SM OVC008
      TEMPO 2213/2215 OVC010
     FM221500 14008KT P6SM OVC015
     FM222100 12006KT P6SM SCT020 OVC050
     FM230600 11005KT P6SM OVC020
     FM231000 09005KT 3SM -SN OVC010
      AMD LTD TO CLD VIS AND WIND=

USA.gov is the U.S. government's official web portal to all federal, state and local government web resources and services.